SBJR

Details ICAO SBJR
Name Jacarepagua
Region Brazil
Timezone America/Sao_Paulo (UTC-2.0)
Plans Departing 31
Arriving 31
Stats Elevation 10 ft / 3 m (AMSL)
Location -22.987778° -43.370277°
Runways 1
Magnetic Variation 22.700° W
Sunrise 2017-12-13 08:03:19 UTC / 2017-12-13 06:03:19 Local
Sunset 2017-12-13 21:35:00 UTC / 2017-12-13 19:35:00 Local
Advertisement - Login to hide

Runways

ID Width Length Bearing (true) Bearing (mag) Surface Threshold Offset Overrun Length
02 42 ft / 13 m 2,955 ft / 901 m 359.00° 21.70° Concrete 0 ft / 0 m 0 ft / 0 m
20 42 ft / 13 m 2,955 ft / 901 m 179.00° 201.70° Concrete 0 ft / 0 m 0 ft / 0 m

Map

Weather


0- 5 10 15 20 25 30 35+ Temperature / ° C

Clouds and Precipitation
Forecast for 2017-12-13 12:00 UTC. Updated 26 minutes ago

Ground ~20,000 ft ~40,000 ft Winds

METAR

SBJR 130900Z 00000KT 9999 FEW025 BKN070 22/19 Q1018

TAF

Not found
Warning: Do not use this data for real-world aviation or navigation. No guarantee of current accuracy is given.